Time;durP1;ratioP1;P1;durP2;ratioP2;P2;SDS_P1;SDS_P2;PMS_P1;PMS_P2;Temp;Humidity;BMP_temperature;BMP_pressure;BME280_temperature;BME280_humidity;BME280_pressure;Samples;Min_cycle;Max_cycle;Signal;HPM_P1;HPM_P2
2021/01/20 00:01:11;;;;;;;14.30;7.97;;;7.80;79.90;;;;;;4995682;28;20472;-75
2021/01/20 00:03:36;;;;;;;11.68;7.93;;;7.80;80.30;;;;;;4997043;28;20038;-75
2021/01/20 00:06:02;;;;;;;12.65;8.55;;;7.80;80.70;;;;;;4996631;28;20031;-75
2021/01/20 00:08:28;;;;;;;15.63;9.18;;;7.80;80.60;;;;;;4995867;28;20038;-75
2021/01/20 00:10:53;;;;;;;14.55;8.85;;;7.80;80.50;;;;;;4996296;28;20113;-75
2021/01/20 00:13:19;;;;;;;14.82;9.07;;;7.80;80.50;;;;;;4996669;28;20476;-75
2021/01/20 00:15:44;;;;;;;13.93;8.73;;;7.80;80.80;;;;;;4996565;28;20415;-75
2021/01/20 00:18:10;;;;;;;18.35;9.32;;;7.80;80.70;;;;;;4995335;28;20054;-76
2021/01/20 00:20:36;;;;;;;14.48;9.43;;;7.90;80.70;;;;;;4995202;28;20479;-75
2021/01/20 00:23:01;;;;;;;17.27;9.02;;;7.80;80.90;;;;;;4996583;28;20030;-75
2021/01/20 00:25:27;;;;;;;19.00;9.85;;;7.80;81.20;;;;;;4995482;28;20031;-75
2021/01/20 00:27:52;;;;;;;15.55;9.07;;;7.70;81.40;;;;;;4995262;28;20486;-75
2021/01/20 00:30:18;;;;;;;16.35;9.77;;;7.70;81.30;;;;;;4996554;28;20042;-75
2021/01/20 00:32:44;;;;;;;15.68;9.98;;;7.80;81.50;;;;;;4996371;28;20030;-75
2021/01/20 00:35:10;;;;;;;16.65;10.30;;;7.70;81.60;;;;;;4996255;28;20026;-75
2021/01/20 00:37:37;;;;;;;14.35;10.13;;;7.80;81.40;;;;;;4996426;28;20058;-75
2021/01/20 00:40:03;;;;;;;14.48;10.15;;;7.70;81.50;;;;;;4996399;28;20034;-75
2021/01/20 00:42:29;;;;;;;14.43;9.35;;;7.80;81.70;;;;;;4995070;28;20067;-75
2021/01/20 00:44:54;;;;;;;14.82;10.00;;;7.80;81.30;;;;;;4995978;28;20027;-75
2021/01/20 00:47:20;;;;;;;17.55;10.48;;;7.90;81.70;;;;;;4996059;28;20041;-76
2021/01/20 00:49:45;;;;;;;17.08;11.00;;;7.80;81.30;;;;;;4996025;28;20113;-75
2021/01/20 00:52:11;;;;;;;20.33;10.52;;;7.80;81.80;;;;;;4996114;28;20030;-75
2021/01/20 00:54:36;;;;;;;14.45;10.05;;;7.80;82.00;;;;;;4996090;28;20033;-75
2021/01/20 00:57:02;;;;;;;14.50;10.50;;;7.90;81.70;;;;;;4995102;28;20384;-76
2021/01/20 00:59:28;;;;;;;18.63;10.32;;;7.80;81.60;;;;;;4996108;28;20034;-75
2021/01/20 01:01:57;;;;;;;18.77;10.35;;;7.80;81.80;;;;;;4995751;28;20542;-75
2021/01/20 01:04:26;;;;;;;18.08;10.32;;;7.80;81.90;;;;;;4995732;28;20026;-76
2021/01/20 01:06:52;;;;;;;14.52;9.82;;;7.80;81.80;;;;;;4994591;28;20026;-75
2021/01/20 01:09:18;;;;;;;15.02;10.32;;;7.80;81.90;;;;;;4995801;28;20041;-75
2021/01/20 01:11:43;;;;;;;14.00;9.65;;;7.80;81.90;;;;;;4995672;28;20027;-75
2021/01/20 01:14:09;;;;;;;18.75;10.43;;;7.80;81.80;;;;;;4994366;28;20510;-75
2021/01/20 01:16:34;;;;;;;15.65;9.80;;;7.80;81.90;;;;;;4995874;28;20026;-75
2021/01/20 01:19:00;;;;;;;13.43;9.55;;;7.90;81.60;;;;;;4994239;28;20038;-76
2021/01/20 01:21:26;;;;;;;15.52;9.77;;;8.00;81.00;;;;;;4994931;28;20041;-76
2021/01/20 01:23:51;;;;;;;15.93;9.60;;;8.00;80.90;;;;;;4995773;28;20039;-75
2021/01/20 01:26:17;;;;;;;13.63;9.57;;;7.90;81.20;;;;;;4995432;28;20037;-75
2021/01/20 01:28:42;;;;;;;15.55;9.75;;;7.90;81.20;;;;;;4977997;28;20034;-76
2021/01/20 01:31:08;;;;;;;17.05;9.40;;;7.90;81.30;;;;;;4994020;28;20535;-75
2021/01/20 01:33:35;;;;;;;12.80;9.80;;;8.00;81.00;;;;;;4994098;28;20789;-76
2021/01/20 01:36:01;;;;;;;16.33;9.10;;;8.00;81.20;;;;;;4995110;28;20030;-76
2021/01/20 01:38:27;;;;;;;13.88;9.23;;;7.90;81.40;;;;;;4995189;28;20030;-76
2021/01/20 01:40:52;;;;;;;13.13;9.07;;;8.00;81.90;;;;;;4995099;28;20113;-75
2021/01/20 01:43:18;;;;;;;14.82;10.18;;;7.90;82.30;;;;;;4995039;28;20144;-75
2021/01/20 01:45:44;;;;;;;16.45;10.20;;;8.00;83.00;;;;;;4994985;28;20464;-75
2021/01/20 01:48:10;;;;;;;14.82;9.40;;;7.90;83.40;;;;;;4993469;28;20030;-76
2021/01/20 01:50:36;;;;;;;14.43;8.93;;;7.90;83.40;;;;;;4995138;28;20168;-76
2021/01/20 01:53:01;;;;;;;12.65;9.63;;;7.90;84.00;;;;;;4993781;28;20058;-75
2021/01/20 01:55:27;;;;;;;15.05;9.27;;;7.80;84.30;;;;;;4994794;28;20100;-76
2021/01/20 01:57:52;;;;;;;16.27;10.27;;;7.80;84.60;;;;;;4993939;28;20463;-75
2021/01/20 02:00:18;;;;;;;11.80;9.13;;;7.80;85.00;;;;;;4994782;28;20035;-75
2021/01/20 02:02:44;;;;;;;18.10;9.88;;;7.80;85.10;;;;;;4994439;28;20030;-76
2021/01/20 02:05:10;;;;;;;13.30;9.32;;;7.80;85.50;;;;;;4994765;28;20077;-75
2021/01/20 02:07:35;;;;;;;12.98;8.77;;;7.90;85.70;;;;;;4994597;28;20085;-75
2021/01/20 02:10:02;;;;;;;15.60;9.35;;;7.90;85.70;;;;;;4993540;28;20039;-75
2021/01/20 02:13:06;;;;;;;13.15;9.18;;;7.90;85.10;;;;;;4993279;28;20041;-75
2021/01/20 02:15:36;;;;;;;16.40;9.38;;;7.90;85.30;;;;;;4992023;28;20026;-76
2021/01/20 02:18:23;;;;;;;11.77;8.83;;;7.90;85.30;;;;;;4993418;28;20073;-76
2021/01/20 02:21:09;;;;;;;14.52;8.68;;;7.90;84.40;;;;;;4993293;28;20050;-76
2021/01/20 02:23:39;;;;;;;12.88;8.02;;;7.90;84.30;;;;;;4994423;28;20041;-75
2021/01/20 02:26:14;;;;;;;12.20;8.80;;;7.90;83.90;;;;;;4994412;28;20030;-75
2021/01/20 02:29:04;;;;;;;12.40;8.02;;;8.00;83.80;;;;;;4993058;28;20030;-76
2021/01/20 02:31:29;;;;;;;9.02;7.18;;;8.00;83.70;;;;;;4992943;28;20030;-75
2021/01/20 02:33:58;;;;;;;12.95;7.70;;;8.00;82.60;;;;;;4960318;28;20053;-76
2021/01/20 02:36:23;;;;;;;13.20;7.80;;;8.00;81.90;;;;;;4977152;28;20383;-75
2021/01/20 02:38:49;;;;;;;13.45;6.95;;;8.00;81.80;;;;;;4977005;28;20121;-75
2021/01/20 02:41:25;;;;;;;12.68;7.18;;;8.00;81.70;;;;;;4976926;28;20034;-75
2021/01/20 02:43:51;;;;;;;11.90;7.25;;;8.00;81.60;;;;;;4992870;28;20023;-75
2021/01/20 02:46:18;;;;;;;11.98;7.15;;;8.10;81.50;;;;;;4992693;28;20037;-75
2021/01/20 02:48:43;;;;;;;12.73;7.13;;;8.10;81.30;;;;;;4992805;28;20417;-75
2021/01/20 02:51:09;;;;;;;10.93;7.50;;;8.10;81.30;;;;;;4992835;28;20027;-75
2021/01/20 02:53:34;;;;;;;12.38;7.20;;;8.10;81.00;;;;;;4976748;28;20027;-75
2021/01/20 02:56:01;;;;;;;12.18;6.68;;;8.10;81.20;;;;;;4994282;28;20033;-75
2021/01/20 02:58:29;;;;;;;11.60;7.25;;;8.20;80.90;;;;;;4993201;28;20022;-75
2021/01/20 03:00:54;;;;;;;12.93;7.20;;;8.10;80.90;;;;;;4960690;28;20030;-76
2021/01/20 03:03:20;;;;;;;15.40;7.22;;;8.10;81.00;;;;;;4994049;28;20029;-75
2021/01/20 03:05:46;;;;;;;15.98;7.38;;;8.10;80.80;;;;;;4976744;28;20022;-75
2021/01/20 03:08:12;;;;;;;9.95;6.80;;;8.20;80.80;;;;;;4976544;28;20033;-75
2021/01/20 03:10:37;;;;;;;15.45;6.95;;;8.20;80.40;;;;;;4993895;28;20088;-75
2021/01/20 03:13:03;;;;;;;13.65;6.80;;;8.20;80.90;;;;;;4976585;28;20435;-75
2021/01/20 03:15:40;;;;;;;11.50;7.22;;;8.30;80.50;;;;;;4993632;28;20022;-75
2021/01/20 03:18:05;;;;;;;14.38;7.30;;;8.30;80.20;;;;;;4992583;28;20460;-76
2021/01/20 03:20:31;;;;;;;13.13;6.85;;;8.30;80.60;;;;;;4993787;28;20045;-75
2021/01/20 03:22:57;;;;;;;9.25;6.90;;;8.30;80.50;;;;;;4992529;28;20022;-75
2021/01/20 03:25:23;;;;;;;10.88;7.55;;;8.30;80.70;;;;;;4993765;28;20152;-76
2021/01/20 03:27:49;;;;;;;10.70;6.38;;;8.40;80.50;;;;;;4993648;28;20126;-76
2021/01/20 03:30:15;;;;;;;10.80;7.28;;;8.50;79.70;;;;;;4992331;28;20038;-76
2021/01/20 03:32:40;;;;;;;11.43;6.93;;;8.40;80.20;;;;;;4994000;28;20427;-76
2021/01/20 03:35:07;;;;;;;13.18;6.55;;;8.40;79.60;;;;;;4993627;28;20034;-76
2021/01/20 03:37:32;;;;;;;11.68;5.88;;;8.40;79.40;;;;;;4993473;28;20034;-75
2021/01/20 03:39:58;;;;;;;10.32;6.28;;;8.50;79.60;;;;;;4993665;28;20034;-75
2021/01/20 03:42:23;;;;;;;10.80;6.38;;;8.50;79.30;;;;;;4993702;28;20058;-75
2021/01/20 03:44:49;;;;;;;9.25;5.72;;;8.50;79.20;;;;;;4997329;28;20030;-76
2021/01/20 03:47:14;;;;;;;10.40;5.32;;;8.50;78.90;;;;;;4997285;28;20041;-76
2021/01/20 03:49:40;;;;;;;8.00;5.05;;;8.60;78.60;;;;;;4995853;28;20436;-76
2021/01/20 03:52:06;;;;;;;9.02;5.75;;;8.70;77.90;;;;;;4997240;28;20038;-75
2021/01/20 03:54:31;;;;;;;10.38;5.47;;;8.70;78.20;;;;;;4997310;28;20057;-76
2021/01/20 03:56:57;;;;;;;10.05;5.35;;;8.70;78.50;;;;;;4997155;28;20369;-75
2021/01/20 03:59:22;;;;;;;9.85;5.65;;;8.70;78.10;;;;;;4996841;28;20416;-75
2021/01/20 04:01:48;;;;;;;9.00;5.75;;;8.70;77.80;;;;;;4997370;28;20042;-75
2021/01/20 04:04:13;;;;;;;7.15;4.53;;;8.80;77.90;;;;;;4996975;28;20387;-75
2021/01/20 04:06:39;;;;;;;7.78;5.10;;;8.80;77.40;;;;;;4995634;28;20033;-76
2021/01/20 04:09:07;;;;;;;7.10;4.32;;;8.80;77.30;;;;;;4996955;28;20042;-75
2021/01/20 04:11:33;;;;;;;9.43;4.85;;;8.90;77.30;;;;;;4996803;28;20419;-76
2021/01/20 04:13:59;;;;;;;7.78;4.25;;;8.80;77.20;;;;;;4995353;28;20034;-75
2021/01/20 04:16:24;;;;;;;6.72;4.82;;;8.80;77.40;;;;;;4997016;28;20057;-75
2021/01/20 04:18:50;;;;;;;7.47;4.57;;;8.70;77.30;;;;;;4995463;28;20031;-76
2021/01/20 04:21:15;;;;;;;9.40;4.55;;;8.80;77.50;;;;;;4996904;28;20034;-75
2021/01/20 04:23:41;;;;;;;7.53;4.35;;;8.80;77.50;;;;;;4995419;28;20030;-76
2021/01/20 04:26:09;;;;;;;5.70;4.13;;;8.90;77.60;;;;;;4996584;28;20085;-75
2021/01/20 04:28:35;;;;;;;7.97;3.92;;;8.90;77.20;;;;;;4996224;28;20133;-76
2021/01/20 04:31:01;;;;;;;6.68;3.92;;;8.90;77.60;;;;;;4996540;28;20518;-75
2021/01/20 04:33:27;;;;;;;9.48;4.53;;;9.00;77.30;;;;;;4996484;28;20023;-75
2021/01/20 04:35:52;;;;;;;7.70;3.88;;;9.00;76.90;;;;;;4996249;28;20054;-76
2021/01/20 04:38:18;;;;;;;12.75;4.65;;;9.00;77.20;;;;;;4995418;28;20439;-75
2021/01/20 04:40:44;;;;;;;6.25;3.53;;;9.00;77.30;;;;;;4996525;28;20030;-75
2021/01/20 04:43:10;;;;;;;7.15;3.72;;;9.10;77.50;;;;;;4995952;28;20069;-76
2021/01/20 04:45:35;;;;;;;4.90;3.47;;;9.10;77.20;;;;;;4979165;28;20038;-75
2021/01/20 04:48:01;;;;;;;5.72;3.35;;;9.10;77.10;;;;;;4996076;28;20406;-75
2021/01/20 04:50:27;;;;;;;5.82;3.30;;;9.20;77.30;;;;;;4994940;28;20038;-75
2021/01/20 04:52:52;;;;;;;9.13;3.40;;;9.10;77.40;;;;;;4996117;28;20117;-76
2021/01/20 04:55:18;;;;;;;6.75;3.60;;;9.20;77.30;;;;;;4961749;28;20030;-75
2021/01/20 04:57:44;;;;;;;5.38;3.28;;;9.20;77.30;;;;;;4978635;28;20030;-75
2021/01/20 05:00:09;;;;;;;7.68;3.22;;;9.20;77.20;;;;;;4994587;28;20038;-76
2021/01/20 05:02:36;;;;;;;5.90;3.47;;;9.20;77.40;;;;;;4995806;28;20551;-76
2021/01/20 05:05:03;;;;;;;6.03;3.10;;;9.20;77.80;;;;;;4995733;28;20495;-75
2021/01/20 05:07:28;;;;;;;5.20;3.20;;;9.10;77.70;;;;;;4995630;28;20034;-75
2021/01/20 05:09:54;;;;;;;6.30;3.50;;;9.10;78.00;;;;;;4995569;28;20034;-75
2021/01/20 05:12:42;;;;;;;4.88;3.10;;;9.20;78.00;;;;;;4994473;28;20057;-76
2021/01/20 05:15:09;;;;;;;4.78;3.03;;;9.20;78.10;;;;;;4994777;28;20054;-76
2021/01/20 05:17:35;;;;;;;5.80;3.50;;;9.20;78.20;;;;;;4994550;28;20035;-75
2021/01/20 05:20:02;;;;;;;4.25;3.05;;;9.20;78.60;;;;;;4995405;28;20042;-76
2021/01/20 05:22:30;;;;;;;5.60;3.30;;;9.10;79.10;;;;;;4995347;28;20451;-77
2021/01/20 05:25:00;;;;;;;5.38;3.35;;;9.10;79.60;;;;;;4994600;28;20037;-76
2021/01/20 05:27:26;;;;;;;4.88;3.50;;;9.00;80.90;;;;;;4994311;28;20026;-76
2021/01/20 05:30:05;;;;;;;7.47;4.10;;;8.90;82.10;;;;;;4995577;28;20030;-76
2021/01/20 05:32:31;;;;;;;6.10;3.70;;;8.80;83.50;;;;;;4993960;28;20054;-76
2021/01/20 05:35:01;;;;;;;5.82;3.50;;;8.80;83.60;;;;;;4993936;28;20065;-77
2021/01/20 05:37:26;;;;;;;9.15;3.88;;;8.70;84.20;;;;;;4994054;28;20026;-76
2021/01/20 05:40:05;;;;;;;6.57;3.95;;;8.70;84.40;;;;;;4995195;28;20034;-76
2021/01/20 05:42:43;;;;;;;4.57;3.40;;;8.50;85.20;;;;;;4995198;28;20072;-76
2021/01/20 05:45:09;;;;;;;6.55;3.72;;;8.50;84.80;;;;;;4978993;28;20497;-75
2021/01/20 05:47:34;;;;;;;5.43;3.75;;;8.50;84.90;;;;;;4994860;28;20040;-76
2021/01/20 05:50:07;;;;;;;6.65;3.50;;;8.40;85.30;;;;;;4994770;28;20121;-76
2021/01/20 05:52:33;;;;;;;8.07;3.92;;;8.40;85.70;;;;;;4994947;28;20033;-76
2021/01/20 05:54:58;;;;;;;8.60;3.80;;;8.40;85.00;;;;;;4995003;28;20098;-76
2021/01/20 05:57:28;;;;;;;7.35;3.90;;;8.40;85.50;;;;;;4977606;28;20034;-76
2021/01/20 05:59:53;;;;;;;6.72;4.03;;;8.40;85.80;;;;;;4994888;28;20022;-76
2021/01/20 06:02:19;;;;;;;9.88;4.75;;;8.30;86.10;;;;;;4994605;28;20084;-76
2021/01/20 06:04:45;;;;;;;6.95;3.95;;;8.20;86.90;;;;;;4994929;28;20027;-76
2021/01/20 06:07:12;;;;;;;6.50;3.70;;;8.20;86.90;;;;;;4994655;28;20072;-76
2021/01/20 06:09:42;;;;;;;8.18;4.88;;;8.10;87.40;;;;;;4994897;28;20038;-75
2021/01/20 06:12:08;;;;;;;6.25;4.72;;;8.10;87.70;;;;;;4994619;28;20023;-76
2021/01/20 06:14:34;;;;;;;7.03;4.18;;;8.10;87.80;;;;;;4993482;28;20026;-76
2021/01/20 06:17:08;;;;;;;7.03;3.70;;;8.10;87.50;;;;;;4994379;28;20027;-76
2021/01/20 06:19:35;;;;;;;7.13;3.95;;;8.10;87.40;;;;;;4994451;28;20038;-76
2021/01/20 06:22:00;;;;;;;7.05;4.10;;;8.10;87.20;;;;;;4977391;28;20023;-76
2021/01/20 06:24:40;;;;;;;8.15;4.50;;;8.00;87.50;;;;;;4960993;28;20491;-76
2021/01/20 06:27:10;;;;;;;8.32;4.20;;;8.00;87.30;;;;;;4977833;28;20037;-76
2021/01/20 06:29:37;;;;;;;11.75;4.20;;;8.20;86.30;;;;;;4993162;28;20030;-76
2021/01/20 06:32:03;;;;;;;5.57;3.30;;;8.20;86.40;;;;;;4977010;28;20038;-76
2021/01/20 06:34:28;;;;;;;6.50;3.80;;;8.20;86.10;;;;;;4993001;28;20026;-76
2021/01/20 06:36:54;;;;;;;5.50;3.72;;;8.40;85.70;;;;;;4994213;28;20535;-76
2021/01/20 06:39:29;;;;;;;5.30;3.83;;;8.30;85.40;;;;;;4994237;28;20037;-76
2021/01/20 06:41:55;;;;;;;9.23;4.60;;;8.20;85.90;;;;;;4994157;28;20046;-76
2021/01/20 06:44:21;;;;;;;8.52;3.30;;;8.20;86.20;;;;;;4993036;28;20069;-76
2021/01/20 06:46:55;;;;;;;7.00;3.75;;;8.20;85.90;;;;;;4993119;28;20428;-76
2021/01/20 06:49:21;;;;;;;7.57;3.40;;;8.30;85.90;;;;;;4994098;28;20047;-76
2021/01/20 06:52:09;;;;;;;7.00;4.00;;;8.20;85.40;;;;;;4976616;28;20109;-76
2021/01/20 06:54:37;;;;;;;9.82;5.70;;;8.20;85.50;;;;;;4994172;28;20022;-76
2021/01/20 06:57:02;;;;;;;5.38;2.72;;;8.20;85.10;;;;;;4992944;28;20022;-75
2021/01/20 06:59:30;;;;;;;5.85;3.47;;;8.20;84.80;;;;;;4993917;28;20077;-76
2021/01/20 07:02:01;;;;;;;5.00;3.28;;;8.20;85.00;;;;;;4993742;28;20026;-76
2021/01/20 07:04:39;;;;;;;6.10;3.45;;;8.30;84.30;;;;;;4993878;28;20026;-76
2021/01/20 07:07:11;;;;;;;7.55;3.30;;;8.30;84.00;;;;;;4993688;28;20030;-76
2021/01/20 07:09:48;;;;;;;5.95;3.70;;;8.20;84.20;;;;;;4978737;28;20026;-76
2021/01/20 07:12:17;;;;;;;4.45;3.10;;;8.20;84.40;;;;;;4975905;28;20493;-76
2021/01/20 07:14:43;;;;;;;4.68;3.25;;;8.20;84.20;;;;;;4973381;28;20110;-76
2021/01/20 07:17:10;;;;;;;6.30;3.63;;;8.20;83.80;;;;;;4974356;28;20105;-76
2021/01/20 07:19:37;;;;;;;7.72;3.30;;;8.10;83.90;;;;;;4976970;28;20031;-76
2021/01/20 07:22:03;;;;;;;5.32;3.10;;;8.10;83.50;;;;;;4976955;28;20058;-75
2021/01/20 07:24:29;;;;;;;5.93;3.00;;;8.10;83.10;;;;;;4960807;28;20035;-77
2021/01/20 07:26:54;;;;;;;5.57;2.92;;;8.10;83.50;;;;;;4976888;28;20034;-76
2021/01/20 07:29:24;;;;;;;5.10;2.88;;;8.00;83.10;;;;;;4976668;28;20038;-76
2021/01/20 07:31:50;;;;;;;6.18;3.40;;;8.00;82.90;;;;;;4978881;28;20365;-76
2021/01/20 07:34:16;;;;;;;5.97;3.03;;;8.10;83.00;;;;;;4979957;28;20096;-76
2021/01/20 07:36:42;;;;;;;5.30;3.22;;;8.00;82.90;;;;;;4979751;28;20033;-76
2021/01/20 07:39:24;;;;;;;6.47;2.80;;;8.10;82.70;;;;;;4995963;28;20050;-76
2021/01/20 07:41:56;;;;;;;4.95;2.70;;;8.20;81.90;;;;;;4995990;28;20037;-76
2021/01/20 07:44:22;;;;;;;8.73;2.83;;;8.20;82.00;;;;;;4996600;28;20031;-76
2021/01/20 07:47:06;;;;;;;6.22;2.53;;;8.20;81.70;;;;;;4979795;28;20089;-76
2021/01/20 07:49:35;;;;;;;4.22;2.85;;;8.10;81.60;;;;;;4997560;28;20394;-76
2021/01/20 07:52:05;;;;;;;4.82;2.53;;;8.20;81.60;;;;;;4997124;28;20069;-76
2021/01/20 07:54:40;;;;;;;3.88;2.58;;;8.20;80.90;;;;;;4995739;28;20137;-77
2021/01/20 07:57:06;;;;;;;8.20;2.85;;;8.30;81.20;;;;;;4980019;28;20030;-76
2021/01/20 07:59:32;;;;;;;6.43;2.72;;;8.30;80.40;;;;;;4995886;28;20122;-76
2021/01/20 08:02:09;;;;;;;4.38;2.83;;;8.20;79.70;;;;;;4996922;28;20113;-76
2021/01/20 08:04:35;;;;;;;3.72;2.58;;;8.30;79.90;;;;;;4996433;28;20030;-76
2021/01/20 08:07:01;;;;;;;4.03;2.67;;;8.30;79.60;;;;;;4995441;28;20023;-77
2021/01/20 08:09:43;;;;;;;4.28;2.35;;;8.30;78.90;;;;;;4996591;28;20567;-76
2021/01/20 08:12:21;;;;;;;3.58;2.03;;;8.40;78.00;;;;;;5011758;28;20038;-77
2021/01/20 08:14:47;;;;;;;4.28;2.38;;;8.50;78.30;;;;;;5010546;28;20057;-76
2021/01/20 08:17:12;;;;;;;3.80;2.40;;;8.50;77.40;;;;;;4993227;28;20471;-76
2021/01/20 08:19:38;;;;;;;5.43;2.25;;;8.50;77.00;;;;;;4978654;28;20434;-76
2021/01/20 08:22:06;;;;;;;3.50;2.05;;;8.50;77.30;;;;;;4978731;28;20034;-77
2021/01/20 08:24:32;;;;;;;4.32;2.17;;;8.60;77.00;;;;;;4979105;28;20026;-77
2021/01/20 08:26:59;;;;;;;4.60;2.28;;;8.70;76.90;;;;;;4996231;28;20042;-77
2021/01/20 08:29:25;;;;;;;3.10;1.98;;;8.60;76.10;;;;;;4978434;28;20060;-76
2021/01/20 08:32:09;;;;;;;4.35;2.17;;;8.60;75.50;;;;;;4995705;28;20026;-77
2021/01/20 08:34:39;;;;;;;4.05;2.28;;;8.70;75.10;;;;;;4995058;28;20023;-76
2021/01/20 08:37:07;;;;;;;4.88;2.53;;;8.80;74.80;;;;;;4994916;28;20030;-76
2021/01/20 08:39:34;;;;;;;8.20;2.67;;;8.80;74.30;;;;;;4994651;28;20046;-76
2021/01/20 08:42:16;;;;;;;5.47;2.40;;;8.80;73.90;;;;;;4992339;28;20034;-77
2021/01/20 08:45:11;;;;;;;4.20;2.60;;;8.80;73.40;;;;;;4972874;28;20081;-76
2021/01/20 08:47:44;;;;;;;3.65;2.50;;;8.80;73.30;;;;;;4959833;28;20484;-76
2021/01/20 08:50:10;;;;;;;5.65;2.20;;;8.70;72.90;;;;;;4975403;28;20031;-77
2021/01/20 08:53:06;;;;;;;5.80;2.40;;;8.70;73.30;;;;;;4972321;28;20110;-77
2021/01/20 08:55:41;;;;;;;4.22;2.28;;;8.80;73.30;;;;;;4963263;28;20049;-77
2021/01/20 08:58:22;;;;;;;7.13;3.05;;;8.80;72.40;;;;;;4974887;28;20082;-76
2021/01/20 09:00:49;;;;;;;5.93;2.13;;;8.80;72.00;;;;;;4994652;28;20102;-75
2021/01/20 09:03:19;;;;;;;5.63;2.30;;;8.90;71.30;;;;;;4995471;28;20029;-76
2021/01/20 09:05:45;;;;;;;3.17;2.10;;;8.90;71.60;;;;;;5010403;28;20023;-76
2021/01/20 09:08:11;;;;;;;5.28;2.25;;;8.90;70.60;;;;;;4995252;28;20077;-77
2021/01/20 09:10:37;;;;;;;9.30;2.20;;;8.80;70.50;;;;;;4994336;28;20038;-76
2021/01/20 09:13:02;;;;;;;4.10;2.08;;;8.80;70.20;;;;;;4976141;28;20441;-76
2021/01/20 09:15:28;;;;;;;2.67;2.17;;;8.80;70.50;;;;;;4980870;28;20377;-76
2021/01/20 09:17:54;;;;;;;3.38;2.10;;;8.90;70.60;;;;;;4995573;28;20038;-77
2021/01/20 09:20:19;;;;;;;4.22;2.47;;;8.90;69.70;;;;;;4991135;28;20038;-77
2021/01/20 09:22:45;;;;;;;4.30;2.10;;;8.80;69.50;;;;;;4976901;28;20034;-76
2021/01/20 09:25:11;;;;;;;5.25;2.60;;;8.80;69.80;;;;;;4994529;28;20027;-76
2021/01/20 09:27:37;;;;;;;4.00;2.30;;;8.90;70.10;;;;;;4994446;28;20038;-76
2021/01/20 09:30:03;;;;;;;7.30;2.30;;;9.00;68.70;;;;;;4993999;28;20035;-76
2021/01/20 09:32:34;;;;;;;3.95;1.90;;;9.00;68.00;;;;;;4993083;28;20019;-76
2021/01/20 09:34:59;;;;;;;3.72;2.20;;;9.10;68.00;;;;;;4977501;28;20042;-76
2021/01/20 09:37:25;;;;;;;5.07;3.38;;;9.00;67.80;;;;;;4975236;28;20472;-76
2021/01/20 09:39:51;;;;;;;3.05;2.00;;;9.00;67.50;;;;;;4974013;28;20074;-77
2021/01/20 09:42:16;;;;;;;7.80;2.50;;;9.00;68.30;;;;;;4973487;28;20038;-76
2021/01/20 09:44:42;;;;;;;3.58;2.25;;;9.00;68.00;;;;;;4978236;28;20783;-76
2021/01/20 09:47:08;;;;;;;6.35;2.25;;;9.10;67.60;;;;;;4976076;28;20027;-76
2021/01/20 09:49:33;;;;;;;6.82;2.83;;;9.20;67.70;;;;;;4975149;28;20117;-78
2021/01/20 09:51:59;;;;;;;4.57;2.08;;;9.20;67.10;;;;;;4973749;28;20038;-76
2021/01/20 09:54:25;;;;;;;5.82;2.22;;;9.30;66.50;;;;;;4974891;28;20464;-76
2021/01/20 09:56:51;;;;;;;3.95;2.00;;;9.40;66.30;;;;;;4975462;28;20030;-76
2021/01/20 09:59:17;;;;;;;4.97;2.60;;;9.40;66.30;;;;;;4974472;28;20169;-76
2021/01/20 10:01:42;;;;;;;5.13;2.38;;;9.30;66.10;;;;;;4974452;28;20107;-78
2021/01/20 10:04:08;;;;;;;5.03;2.20;;;9.40;65.90;;;;;;4978875;28;20038;-76
2021/01/20 10:06:33;;;;;;;6.72;2.40;;;9.40;65.70;;;;;;4993023;28;20015;-76
2021/01/20 10:08:59;;;;;;;8.45;2.53;;;9.40;65.80;;;;;;4993883;28;20431;-77
2021/01/20 10:11:24;;;;;;;3.58;2.22;;;9.50;66.30;;;;;;4992132;28;20032;-78
2021/01/20 10:13:50;;;;;;;5.45;2.10;;;9.50;65.30;;;;;;4992947;28;20022;-77
2021/01/20 10:16:16;;;;;;;4.72;1.95;;;9.60;65.50;;;;;;4976766;28;20420;-77
2021/01/20 10:18:42;;;;;;;6.00;2.30;;;9.70;65.00;;;;;;4983414;28;20494;-77
2021/01/20 10:21:08;;;;;;;5.10;2.47;;;9.70;64.60;;;;;;4949175;28;20564;-77
2021/01/20 10:23:33;;;;;;;5.07;2.63;;;9.60;64.80;;;;;;4952306;29;20047;-77
2021/01/20 10:25:59;;;;;;;4.78;2.42;;;9.60;65.30;;;;;;4952330;28;20409;-77
2021/01/20 10:28:25;;;;;;;3.80;2.17;;;9.80;65.00;;;;;;4952679;28;20039;-78
2021/01/20 10:30:52;;;;;;;4.47;2.45;;;9.90;64.70;;;;;;4954725;29;20126;-75
2021/01/20 10:33:18;;;;;;;4.15;2.05;;;9.80;64.20;;;;;;4924413;29;20070;-77
2021/01/20 10:35:43;;;;;;;3.58;1.95;;;9.70;64.40;;;;;;4952790;29;20051;-77
2021/01/20 10:38:09;;;;;;;6.22;1.98;;;9.70;64.80;;;;;;4952229;28;20070;-77
2021/01/20 10:40:34;;;;;;;5.55;2.03;;;9.80;64.60;;;;;;4951532;29;20058;-78
2021/01/20 10:43:00;;;;;;;4.55;2.05;;;9.70;64.40;;;;;;4952039;28;20186;-77
2021/01/20 10:45:26;;;;;;;3.15;1.50;;;9.60;64.70;;;;;;4941424;28;20670;-83
2021/01/20 10:47:51;;;;;;;4.32;2.30;;;9.60;64.40;;;;;;4949955;29;20067;-76
2021/01/20 10:50:17;;;;;;;4.05;1.60;;;9.60;64.20;;;;;;4933603;29;20114;-77
2021/01/20 10:52:42;;;;;;;7.10;2.25;;;9.70;64.30;;;;;;4967910;28;20053;-77
2021/01/20 10:55:08;;;;;;;4.28;2.00;;;9.70;64.60;;;;;;4973693;28;20110;-78
2021/01/20 10:57:34;;;;;;;4.55;2.08;;;9.70;64.20;;;;;;4988113;28;20400;-77
2021/01/20 10:59:59;;;;;;;3.80;1.92;;;9.70;64.50;;;;;;4956907;28;20023;-77
2021/01/20 11:02:25;;;;;;;4.78;2.17;;;9.50;64.40;;;;;;4973763;28;20027;-77
2021/01/20 11:04:50;;;;;;;5.32;2.22;;;9.50;65.60;;;;;;4972277;28;20031;-77
2021/01/20 11:07:17;;;;;;;4.90;2.10;;;9.50;65.50;;;;;;4973143;28;20031;-77
2021/01/20 11:09:43;;;;;;;8.93;2.22;;;9.60;66.10;;;;;;4974098;28;20031;-77
2021/01/20 11:12:09;;;;;;;3.05;1.83;;;9.60;66.60;;;;;;4974400;28;20476;-77
2021/01/20 11:14:34;;;;;;;3.65;2.22;;;9.60;64.70;;;;;;4984702;28;20041;-77
2021/01/20 11:17:00;;;;;;;4.28;1.90;;;9.80;64.80;;;;;;4993370;28;20396;-77
2021/01/20 11:19:26;;;;;;;3.70;1.90;;;9.80;63.60;;;;;;4993481;28;20038;-77
2021/01/20 11:21:52;;;;;;;6.10;2.00;;;9.90;64.40;;;;;;4993657;28;20030;-77
2021/01/20 11:24:18;;;;;;;3.30;1.90;;;9.90;63.40;;;;;;4993688;28;20487;-77
2021/01/20 11:26:47;;;;;;;4.07;2.25;;;9.80;64.10;;;;;;4985554;28;20093;-79
2021/01/20 11:29:13;;;;;;;4.72;1.90;;;10.00;64.10;;;;;;4980202;28;20630;-79
2021/01/20 11:31:39;;;;;;;3.45;1.80;;;9.90;64.30;;;;;;4980866;28;20039;-82
2021/01/20 11:34:04;;;;;;;3.78;2.10;;;10.00;64.00;;;;;;4978699;28;20383;-80
2021/01/20 11:36:30;;;;;;;6.10;2.47;;;10.10;64.90;;;;;;4962201;28;20039;-79
2021/01/20 11:38:56;;;;;;;5.32;1.80;;;10.10;63.90;;;;;;4961153;28;20460;-81
2021/01/20 11:41:21;;;;;;;4.10;2.28;;;10.20;63.80;;;;;;4972359;28;20066;-78
2021/01/20 11:43:47;;;;;;;4.72;1.95;;;10.30;63.90;;;;;;4973497;28;20544;-78
2021/01/20 11:46:14;;;;;;;4.85;2.22;;;10.30;63.00;;;;;;4974499;28;20027;-77
2021/01/20 11:48:39;;;;;;;6.20;2.47;;;10.30;63.00;;;;;;4974233;28;20035;-77
2021/01/20 11:51:05;;;;;;;3.28;1.75;;;10.30;63.00;;;;;;4973002;28;20400;-77
2021/01/20 11:53:31;;;;;;;4.18;2.28;;;10.30;62.60;;;;;;4974110;28;20023;-77
2021/01/20 11:55:57;;;;;;;4.15;2.00;;;10.20;62.00;;;;;;4974040;28;20053;-77
2021/01/20 11:58:22;;;;;;;4.78;2.45;;;10.10;61.90;;;;;;4973922;28;20366;-77
2021/01/20 12:00:48;;;;;;;4.68;2.13;;;10.00;62.50;;;;;;4973911;28;20447;-78
2021/01/20 12:03:13;;;;;;;6.63;2.10;;;10.00;63.10;;;;;;4974154;28;20027;-78
2021/01/20 12:05:39;;;;;;;4.53;2.35;;;10.20;63.00;;;;;;4959507;28;20519;-77
2021/01/20 12:08:05;;;;;;;3.53;1.77;;;10.50;62.00;;;;;;4977545;28;20039;-75
2021/01/20 12:10:30;;;;;;;5.13;2.25;;;10.40;61.20;;;;;;4977426;28;20464;-77
2021/01/20 12:12:56;;;;;;;6.80;1.95;;;10.40;61.50;;;;;;4977281;28;20364;-78
2021/01/20 12:15:22;;;;;;;3.22;1.83;;;10.60;61.70;;;;;;4977249;28;20159;-77
2021/01/20 12:17:47;;;;;;;4.22;1.90;;;10.50;60.40;;;;;;4975916;28;20035;-77
2021/01/20 12:20:13;;;;;;;4.43;2.15;;;10.40;60.70;;;;;;4977189;28;20460;-77
2021/01/20 12:22:39;;;;;;;4.57;1.90;;;10.40;60.90;;;;;;4977162;28;20085;-77
2021/01/20 12:25:06;;;;;;;4.40;2.30;;;10.40;60.90;;;;;;4977187;28;20380;-77
2021/01/20 12:27:31;;;;;;;4.78;2.15;;;10.50;61.20;;;;;;4976794;28;20030;-77
2021/01/20 12:30:00;;;;;;;4.00;2.00;;;10.50;60.90;;;;;;4976223;28;20472;-77
2021/01/20 12:32:26;;;;;;;3.65;1.80;;;10.60;60.70;;;;;;4975850;28;20027;-77
2021/01/20 12:34:52;;;;;;;4.25;2.10;;;10.60;60.40;;;;;;4977057;28;20092;-77
2021/01/20 12:37:17;;;;;;;3.78;1.90;;;10.50;60.90;;;;;;4975603;28;20023;-77
2021/01/20 12:39:43;;;;;;;3.58;2.05;;;10.60;60.30;;;;;;4976999;28;20030;-77
2021/01/20 12:42:09;;;;;;;6.20;2.33;;;10.60;60.20;;;;;;4976706;28;20034;-78
2021/01/20 12:44:34;;;;;;;3.65;2.13;;;10.60;60.10;;;;;;4975934;28;20062;-77
2021/01/20 12:47:00;;;;;;;4.30;2.00;;;10.60;60.40;;;;;;4975894;28;20143;-77
2021/01/20 12:49:26;;;;;;;3.65;1.77;;;10.40;60.50;;;;;;4959777;28;20043;-77
2021/01/20 12:51:51;;;;;;;4.15;2.00;;;10.40;60.70;;;;;;4976674;28;20373;-76
2021/01/20 12:54:17;;;;;;;6.28;1.92;;;10.40;60.90;;;;;;4976693;28;20038;-77